FR-0215 weather

Public forecast

Using degrees Celsius for public forecast. Weather courtesy of forecast.io.

Closest aviation weather report (METAR) to Centre Hospitalier Heliport

Closest report is Annecy-Haute-Savoie-Mont Blanc Airport, 2.4 nm (4.4 km) NNW. Retrieved 2020/08/10 04:00 UTC (16 minutes ago):

LFLP 100400Z AUTO VRB03KT CAVOK 19/15 Q1015 TEMPO FEW090CB

Closest aviation forecast (TAF) to Centre Hospitalier Heliport

Closest forecast is Annecy-Haute-Savoie-Mont Blanc Airport, 2.4 nm (4.4 km) NNW. Retrieved 2020-08-10 03:00 UTC (1 hour ago):

TAF LFLP 100200Z 1003/1103 VRB03KT CAVOK PROB40 TEMPO 1003/1011 -SHRA FEW090CB BECMG 1009/1011 16006KT TEMPO 1015/1023 FEW075CB PROB30 TEMPO 1016/1022 VRB15G30KT 4000 TSRA BKN070CB